Time;durP1;ratioP1;P1;durP2;ratioP2;P2;SDS_P1;SDS_P2;PMS_P1;PMS_P2;Temp;Humidity;BMP_temperature;BMP_pressure;BME280_temperature;BME280_humidity;BME280_pressure;Samples;Min_cycle;Max_cycle;Signal;HPM_P1;HPM_P2
2022/10/20 00:01:08;;;;;;;3.75;1.52;;;21.00;99.90;;;;;;4953275;29;20223;-73
2022/10/20 00:03:39;;;;;;;3.47;1.35;;;21.20;99.90;;;;;;4950904;29;20225;-76
2022/10/20 00:06:12;;;;;;;3.08;1.30;;;21.30;99.90;;;;;;4953964;29;20319;-76
2022/10/20 00:08:46;;;;;;;4.10;1.67;;;21.50;99.90;;;;;;4954704;29;20293;-79
2022/10/20 00:11:18;;;;;;;2.75;1.33;;;21.60;99.90;;;;;;4953904;29;20225;-75
2022/10/20 00:13:50;;;;;;;4.20;1.42;;;21.60;99.90;;;;;;4953799;29;20632;-78
2022/10/20 00:16:21;;;;;;;3.67;1.33;;;21.80;99.90;;;;;;4954045;29;20288;-75
2022/10/20 00:18:52;;;;;;;3.50;1.52;;;21.80;99.90;;;;;;4954647;28;20247;-77
2022/10/20 00:21:24;;;;;;;6.05;1.60;;;22.00;99.90;;;;;;4954105;29;20199;-75
2022/10/20 00:24:00;;;;;;;2.88;1.30;;;22.00;99.90;;;;;;4949909;29;20287;-75
2022/10/20 00:26:32;;;;;;;3.70;1.90;;;22.10;99.90;;;;;;4953549;29;20279;-77
2022/10/20 00:29:05;;;;;;;4.68;1.80;;;22.10;99.90;;;;;;4951654;29;20189;-76
2022/10/20 00:31:36;;;;;;;3.40;1.58;;;22.10;99.90;;;;;;4951102;29;20213;-78
2022/10/20 00:34:06;;;;;;;5.65;1.80;;;22.10;99.90;;;;;;4952123;28;20207;-78
2022/10/20 00:36:37;;;;;;;5.82;1.85;;;22.10;99.90;;;;;;4947760;29;20236;-76
2022/10/20 00:39:10;;;;;;;2.63;1.58;;;22.20;99.90;;;;;;4950628;29;20201;-75
2022/10/20 00:41:41;;;;;;;2.25;1.63;;;22.30;99.90;;;;;;4950916;29;20205;-77
2022/10/20 00:44:43;;;;;;;5.22;1.70;;;22.40;99.90;;;;;;4952564;29;20189;-77
2022/10/20 00:47:16;;;;;;;3.53;1.60;;;22.40;99.90;;;;;;4952290;29;20201;-79
2022/10/20 00:49:48;;;;;;;4.13;1.63;;;22.40;99.90;;;;;;4948253;29;20534;-80
2022/10/20 00:52:22;;;;;;;4.28;1.90;;;22.50;99.90;;;;;;4951171;29;20635;-81
2022/10/20 00:54:54;;;;;;;13.50;2.97;;;22.50;99.90;;;;;;4951209;29;20201;-82
2022/10/20 00:57:25;;;;;;;3.65;2.20;;;22.50;99.90;;;;;;4951444;28;20292;-77
2022/10/20 00:59:57;;;;;;;9.05;2.30;;;22.60;99.90;;;;;;4956633;29;20675;-76
2022/10/20 01:02:28;;;;;;;5.38;1.77;;;22.70;99.90;;;;;;4955314;29;20235;-79
2022/10/20 01:04:59;;;;;;;6.68;1.90;;;22.80;99.90;;;;;;4953194;29;20280;-82
2022/10/20 01:07:30;;;;;;;4.68;2.15;;;22.90;99.90;;;;;;4952562;29;20679;-77
2022/10/20 01:10:03;;;;;;;4.50;1.77;;;23.10;99.90;;;;;;4953512;29;20201;-83
2022/10/20 01:12:44;;;;;;;3.65;1.77;;;23.50;99.90;;;;;;4952671;29;20208;-79
2022/10/20 01:15:25;;;;;;;4.82;1.80;;;23.60;99.90;;;;;;4954455;29;20248;-77
2022/10/20 01:18:03;;;;;;;4.35;1.88;;;23.50;99.90;;;;;;4955016;29;20201;-80
2022/10/20 01:20:54;;;;;;;3.55;1.75;;;23.60;99.90;;;;;;4956304;29;20204;-83
2022/10/20 01:24:11;;;;;;;3.78;1.42;;;23.80;99.90;;;;;;4957030;29;20197;-85
2022/10/20 01:27:12;;;;;;;3.08;1.40;;;23.90;99.90;;;;;;4929205;29;20284;-81
2022/10/20 01:29:49;;;;;;;3.13;1.50;;;23.90;99.90;;;;;;4946596;29;20287;-74
2022/10/20 01:32:25;;;;;;;4.03;1.50;;;23.90;99.90;;;;;;4952646;29;20224;-83
2022/10/20 01:35:04;;;;;;;4.10;1.60;;;23.90;99.90;;;;;;4953493;28;20275;-80
2022/10/20 01:37:42;;;;;;;3.88;1.90;;;23.80;99.90;;;;;;5025816;23;20652;-69
2022/10/20 01:40:19;;;;;;;4.63;1.40;;;23.60;99.90;;;;;;4964174;28;20287;-69
2022/10/20 01:42:53;;;;;;;3.88;1.70;;;23.60;99.90;;;;;;4963860;28;20283;-74
2022/10/20 01:45:28;;;;;;;4.93;1.80;;;23.70;99.90;;;;;;4965551;28;20196;-70
2022/10/20 01:48:03;;;;;;;4.00;1.67;;;23.80;99.90;;;;;;4963254;28;20193;-71
2022/10/20 01:50:35;;;;;;;3.88;1.80;;;24.00;99.90;;;;;;4960273;28;20223;-69
2022/10/20 01:53:06;;;;;;;4.55;1.88;;;24.00;99.90;;;;;;4976497;28;20252;-76
2022/10/20 01:55:38;;;;;;;2.60;1.60;;;23.80;99.90;;;;;;4958247;28;20240;-70
2022/10/20 01:58:34;;;;;;;4.22;1.42;;;23.70;99.90;;;;;;4965501;28;20230;-70
2022/10/20 02:01:14;;;;;;;1.73;1.10;;;23.50;99.90;;;;;;4955823;28;20280;-71
2022/10/20 02:03:53;;;;;;;1.00;0.80;;;23.40;99.90;;;;;;4958081;28;20670;-72
2022/10/20 02:06:36;;;;;;;1.05;0.73;;;23.20;99.90;;;;;;4957227;28;20252;-69
2022/10/20 02:09:09;;;;;;;2.17;1.00;;;23.00;99.90;;;;;;4969166;28;20196;-69
2022/10/20 02:11:47;;;;;;;3.13;1.13;;;22.80;99.90;;;;;;4976473;28;20310;-72
2022/10/20 02:14:21;;;;;;;2.30;1.10;;;22.60;99.90;;;;;;4972933;28;20197;-69
2022/10/20 02:16:57;;;;;;;1.40;1.00;;;22.50;99.90;;;;;;4959393;28;20208;-70
2022/10/20 02:19:32;;;;;;;3.30;1.10;;;22.40;99.90;;;;;;4973570;28;20200;-74
2022/10/20 02:22:05;;;;;;;2.53;1.20;;;22.30;99.90;;;;;;4968248;28;20287;-70
2022/10/20 02:24:39;;;;;;;3.10;1.30;;;22.20;99.90;;;;;;4974867;28;20575;-70
2022/10/20 02:27:14;;;;;;;1.85;1.08;;;22.00;99.90;;;;;;4974579;28;20195;-69
2022/10/20 02:29:49;;;;;;;2.70;0.95;;;21.80;99.90;;;;;;4976145;28;20199;-70
2022/10/20 02:32:22;;;;;;;4.25;1.30;;;21.70;99.90;;;;;;4959825;28;20228;-69
2022/10/20 02:34:53;;;;;;;1.15;0.90;;;21.50;99.90;;;;;;4956946;28;20218;-70
2022/10/20 02:37:24;;;;;;;1.33;1.00;;;21.40;99.90;;;;;;4953768;28;20231;-69
2022/10/20 02:39:54;;;;;;;2.20;1.10;;;21.30;99.90;;;;;;4975931;28;20203;-70
2022/10/20 02:42:25;;;;;;;2.70;1.20;;;21.30;99.90;;;;;;4964643;28;20208;-69
2022/10/20 02:44:56;;;;;;;2.22;1.27;;;21.30;99.90;;;;;;4956784;29;20193;-70
2022/10/20 02:47:29;;;;;;;1.83;1.30;;;21.30;99.90;;;;;;4956834;28;20198;-70
2022/10/20 02:50:00;;;;;;;2.72;1.38;;;21.30;99.90;;;;;;4969427;28;20200;-69
2022/10/20 02:52:31;;;;;;;1.58;1.17;;;21.30;99.90;;;;;;4975823;28;20231;-70
2022/10/20 02:55:02;;;;;;;1.58;1.08;;;21.30;99.90;;;;;;4976135;28;20201;-68
2022/10/20 02:57:32;;;;;;;3.83;1.40;;;21.30;99.90;;;;;;4964609;28;20205;-75
2022/10/20 03:00:03;;;;;;;1.65;1.20;;;21.30;99.90;;;;;;4956576;29;20649;-74
2022/10/20 03:02:36;;;;;;;2.78;1.45;;;21.20;99.90;;;;;;4956265;29;20280;-70
2022/10/20 03:05:07;;;;;;;2.47;1.27;;;21.10;99.90;;;;;;4956446;29;20284;-72
2022/10/20 03:07:38;;;;;;;3.72;1.02;;;21.20;99.90;;;;;;4956421;29;20652;-70
2022/10/20 03:10:09;;;;;;;4.25;0.93;;;21.20;99.90;;;;;;4956181;29;20193;-71
2022/10/20 03:12:40;;;;;;;1.10;0.90;;;21.10;99.90;;;;;;4956257;29;20220;-71
2022/10/20 03:15:11;;;;;;;0.77;0.68;;;21.10;99.90;;;;;;4959069;28;20219;-69
2022/10/20 03:17:44;;;;;;;4.25;1.08;;;21.10;99.90;;;;;;4956879;28;20227;-74
2022/10/20 03:20:20;;;;;;;2.17;0.90;;;21.10;99.90;;;;;;4955440;28;20204;-70
2022/10/20 03:22:51;;;;;;;3.10;0.93;;;21.10;99.90;;;;;;4959710;28;20244;-68
2022/10/20 03:25:22;;;;;;;2.15;0.80;;;21.10;99.90;;;;;;4970020;28;20651;-68
2022/10/20 03:27:52;;;;;;;1.95;0.95;;;21.10;99.90;;;;;;4962990;28;20292;-69
2022/10/20 03:30:23;;;;;;;0.95;0.68;;;21.10;99.90;;;;;;4974919;28;20571;-70
2022/10/20 03:32:57;;;;;;;3.67;1.00;;;21.10;99.90;;;;;;4975167;28;20221;-69
2022/10/20 03:35:28;;;;;;;1.95;0.88;;;21.10;99.90;;;;;;4963482;28;20319;-71
2022/10/20 03:37:58;;;;;;;1.63;1.02;;;21.20;99.90;;;;;;4964074;28;20232;-73
2022/10/20 03:40:29;;;;;;;1.17;0.70;;;21.20;99.90;;;;;;4975097;28;20196;-69
2022/10/20 03:43:00;;;;;;;3.08;0.80;;;21.20;99.90;;;;;;4958848;28;20197;-69
2022/10/20 03:45:31;;;;;;;2.03;0.95;;;21.20;99.90;;;;;;4955738;29;20198;-69
2022/10/20 03:48:03;;;;;;;1.55;1.00;;;21.20;99.90;;;;;;4954484;28;20566;-71
2022/10/20 03:50:34;;;;;;;2.28;0.93;;;21.10;99.90;;;;;;4967393;28;20201;-75
2022/10/20 03:53:05;;;;;;;1.67;1.00;;;21.10;99.90;;;;;;4966652;28;20217;-70
2022/10/20 03:55:36;;;;;;;2.67;1.20;;;21.20;99.90;;;;;;4959401;28;20193;-71
2022/10/20 03:58:06;;;;;;;2.72;1.10;;;21.20;99.90;;;;;;4955395;29;20203;-72
2022/10/20 04:00:37;;;;;;;3.78;1.05;;;21.10;99.90;;;;;;4960630;28;20208;-70
2022/10/20 04:03:10;;;;;;;2.72;1.00;;;21.10;99.90;;;;;;4973615;28;20202;-70
2022/10/20 04:05:40;;;;;;;5.35;1.27;;;21.10;99.90;;;;;;4969856;28;20251;-69
2022/10/20 04:08:11;;;;;;;3.65;1.30;;;21.20;99.90;;;;;;4955586;29;20219;-75
2022/10/20 04:10:42;;;;;;;2.72;1.00;;;21.10;99.90;;;;;;4955477;29;20878;-74
2022/10/20 04:13:13;;;;;;;4.75;1.10;;;21.10;99.90;;;;;;4962424;28;20231;-73
2022/10/20 04:15:44;;;;;;;2.97;1.30;;;21.10;99.90;;;;;;4958144;28;20212;-73
2022/10/20 04:18:16;;;;;;;4.22;1.25;;;21.10;99.90;;;;;;4960929;28;20207;-74
2022/10/20 04:20:48;;;;;;;3.25;1.02;;;21.10;99.90;;;;;;4959576;28;20215;-70
2022/10/20 04:23:19;;;;;;;4.55;1.17;;;21.10;99.90;;;;;;4960160;28;20208;-70
2022/10/20 04:25:50;;;;;;;3.80;1.50;;;21.10;99.90;;;;;;4955211;28;20566;-71
2022/10/20 04:28:22;;;;;;;2.90;1.45;;;21.10;99.90;;;;;;4954888;28;20660;-70
2022/10/20 04:30:53;;;;;;;3.92;1.42;;;21.10;99.90;;;;;;4964713;28;20219;-69
2022/10/20 04:33:26;;;;;;;5.72;1.90;;;21.00;99.90;;;;;;4959948;28;20212;-69
2022/10/20 04:36:00;;;;;;;3.65;1.20;;;21.00;99.90;;;;;;4961695;28;20224;-68
2022/10/20 04:38:33;;;;;;;2.80;0.90;;;21.10;99.90;;;;;;4958990;28;20208;-68
2022/10/20 04:41:05;;;;;;;2.67;0.98;;;21.20;99.90;;;;;;4964584;28;22043;-69
2022/10/20 04:43:36;;;;;;;5.13;1.13;;;21.20;99.90;;;;;;4967861;28;20569;-69
2022/10/20 04:46:08;;;;;;;2.33;0.90;;;21.20;99.90;;;;;;4976505;28;20196;-68
2022/10/20 04:48:43;;;;;;;3.22;0.75;;;21.10;99.90;;;;;;4978171;28;20192;-69
2022/10/20 04:51:16;;;;;;;3.35;1.23;;;21.20;99.90;;;;;;4971329;28;20589;-70
2022/10/20 04:53:46;;;;;;;2.35;0.90;;;21.20;99.90;;;;;;4968107;28;20201;-69
2022/10/20 04:56:19;;;;;;;2.90;0.60;;;21.20;99.90;;;;;;4977898;28;20566;-69
2022/10/20 04:58:51;;;;;;;1.67;0.60;;;21.10;99.90;;;;;;4971504;28;20585;-73
2022/10/20 05:01:22;;;;;;;2.30;0.80;;;21.10;99.90;;;;;;4962382;28;20207;-69
2022/10/20 05:03:55;;;;;;;2.28;1.00;;;21.10;99.90;;;;;;4967702;28;20200;-71
2022/10/20 05:06:28;;;;;;;1.45;0.90;;;21.20;99.90;;;;;;4962345;28;20208;-69
2022/10/20 05:09:00;;;;;;;1.77;0.82;;;21.20;99.90;;;;;;4960706;28;20279;-70
2022/10/20 05:11:32;;;;;;;2.47;0.70;;;21.20;99.90;;;;;;4964370;28;20202;-69
2022/10/20 05:14:02;;;;;;;1.90;1.00;;;21.10;99.90;;;;;;4959673;28;20211;-70
2022/10/20 05:16:33;;;;;;;3.45;1.00;;;21.10;99.90;;;;;;4959426;28;20283;-69
2022/10/20 05:19:06;;;;;;;3.55;0.95;;;21.20;99.90;;;;;;4958963;28;20223;-71
2022/10/20 05:21:37;;;;;;;2.75;0.80;;;21.20;99.90;;;;;;4976108;28;20192;-70
2022/10/20 05:24:08;;;;;;;1.42;0.75;;;21.20;99.90;;;;;;4962701;28;20228;-69
2022/10/20 05:26:39;;;;;;;2.17;1.10;;;21.20;99.90;;;;;;4969739;28;20202;-69
2022/10/20 05:29:11;;;;;;;3.45;0.93;;;21.20;99.90;;;;;;4960022;28;20208;-69
2022/10/20 05:31:43;;;;;;;5.25;0.90;;;21.20;99.90;;;;;;4966635;28;20702;-69
2022/10/20 05:34:15;;;;;;;3.97;0.88;;;21.20;99.90;;;;;;4958842;28;20201;-70
2022/10/20 05:36:46;;;;;;;2.88;0.75;;;21.20;99.90;;;;;;4962725;28;20322;-69
2022/10/20 05:39:17;;;;;;;2.40;0.90;;;21.20;99.90;;;;;;4959004;28;20200;-70
2022/10/20 05:41:49;;;;;;;2.42;0.82;;;21.10;99.90;;;;;;4960148;28;20211;-70
2022/10/20 05:44:20;;;;;;;3.67;0.98;;;21.10;99.90;;;;;;4964279;28;20271;-70
2022/10/20 05:46:51;;;;;;;3.67;1.02;;;21.10;99.90;;;;;;4961103;28;20208;-75
2022/10/20 05:49:23;;;;;;;3.90;1.20;;;21.00;99.90;;;;;;4963648;28;20646;-70
2022/10/20 05:51:54;;;;;;;3.35;1.20;;;21.00;99.90;;;;;;4969419;28;20223;-72
2022/10/20 05:54:25;;;;;;;6.30;0.98;;;21.00;99.90;;;;;;4962453;28;20197;-80
2022/10/20 05:56:56;;;;;;;3.90;1.00;;;21.00;99.90;;;;;;4964100;28;20201;-80
2022/10/20 05:59:28;;;;;;;3.95;1.30;;;21.00;99.90;;;;;;4961460;28;20649;-81
2022/10/20 06:01:59;;;;;;;4.35;1.30;;;21.00;99.90;;;;;;4958061;28;20648;-80
2022/10/20 06:04:32;;;;;;;3.10;1.27;;;21.00;99.90;;;;;;4958461;28;20195;-79
2022/10/20 06:07:04;;;;;;;2.65;1.10;;;21.00;99.90;;;;;;4970318;28;20567;-81
2022/10/20 06:09:35;;;;;;;2.03;1.00;;;21.00;99.90;;;;;;4976656;28;20188;-75
2022/10/20 06:12:06;;;;;;;4.15;1.10;;;21.00;99.90;;;;;;4972371;28;20216;-74
2022/10/20 06:14:37;;;;;;;2.92;1.17;;;21.00;99.90;;;;;;4957122;29;20189;-77
2022/10/20 06:17:07;;;;;;;2.90;1.27;;;21.00;99.90;;;;;;4958904;28;20208;-80
2022/10/20 06:19:40;;;;;;;4.72;1.17;;;21.00;99.90;;;;;;4960171;28;20201;-79
2022/10/20 06:22:12;;;;;;;4.22;1.00;;;21.00;99.90;;;;;;4957186;29;20197;-78
2022/10/20 06:24:43;;;;;;;2.65;1.02;;;21.00;99.90;;;;;;4961846;28;20679;-75
2022/10/20 06:27:14;;;;;;;5.20;1.38;;;21.00;99.90;;;;;;4956899;29;20201;-75
2022/10/20 06:29:45;;;;;;;5.65;2.17;;;20.90;99.90;;;;;;4961129;28;20196;-78
2022/10/20 06:32:17;;;;;;;6.13;1.80;;;20.80;99.90;;;;;;4962172;28;20221;-78
2022/10/20 06:34:49;;;;;;;6.10;2.00;;;20.80;99.90;;;;;;4965315;28;20678;-77
2022/10/20 06:37:20;;;;;;;5.03;1.55;;;20.70;99.90;;;;;;4961893;28;20669;-72
2022/10/20 06:39:51;;;;;;;7.72;1.98;;;20.70;99.90;;;;;;4969810;28;20193;-79
2022/10/20 06:42:21;;;;;;;5.82;1.90;;;20.70;99.90;;;;;;4961559;28;20208;-79
2022/10/20 06:44:53;;;;;;;5.43;2.03;;;20.70;99.90;;;;;;4963030;28;20632;-77
2022/10/20 06:47:24;;;;;;;8.63;2.10;;;20.60;99.90;;;;;;4967960;28;20207;-70
2022/10/20 06:49:57;;;;;;;9.23;1.88;;;20.60;99.90;;;;;;4956656;28;20209;-70
2022/10/20 06:52:28;;;;;;;9.40;1.98;;;20.60;99.90;;;;;;4958401;28;20216;-71
2022/10/20 06:54:58;;;;;;;7.35;2.38;;;20.60;99.90;;;;;;4962426;28;20204;-71
2022/10/20 06:57:29;;;;;;;6.20;2.08;;;20.50;99.90;;;;;;4968717;28;20736;-71
2022/10/20 07:00:00;;;;;;;8.43;1.83;;;20.50;99.90;;;;;;4957115;28;20287;-70
2022/10/20 07:02:31;;;;;;;6.47;1.65;;;20.50;99.90;;;;;;4957716;28;20203;-74
2022/10/20 07:05:03;;;;;;;6.90;1.70;;;20.50;99.90;;;;;;4961639;28;20201;-70
2022/10/20 07:07:34;;;;;;;7.95;1.60;;;20.50;99.90;;;;;;4956593;28;20280;-72
2022/10/20 07:10:05;;;;;;;4.05;1.50;;;20.50;99.90;;;;;;4965182;28;20715;-70
2022/10/20 07:12:36;;;;;;;6.38;1.60;;;20.50;99.90;;;;;;4955988;28;20577;-71
2022/10/20 07:15:07;;;;;;;6.90;1.80;;;20.50;99.90;;;;;;4956993;28;20201;-71
2022/10/20 07:17:38;;;;;;;9.68;2.17;;;20.40;99.90;;;;;;4963264;28;20207;-71
2022/10/20 07:20:11;;;;;;;5.55;1.77;;;20.40;99.90;;;;;;4959650;28;20196;-69
2022/10/20 07:22:42;;;;;;;7.22;2.08;;;20.40;99.90;;;;;;4954349;28;20205;-70
2022/10/20 07:25:13;;;;;;;8.18;2.10;;;20.40;99.90;;;;;;4955396;28;20288;-70
2022/10/20 07:27:43;;;;;;;6.80;2.67;;;20.40;99.90;;;;;;4961240;28;20346;-70
2022/10/20 07:30:14;;;;;;;5.05;1.50;;;20.30;99.90;;;;;;4960359;28;20228;-70
2022/10/20 07:32:45;;;;;;;7.93;1.90;;;20.30;99.90;;;;;;4960553;28;20279;-70
2022/10/20 07:35:20;;;;;;;6.60;1.42;;;20.30;99.90;;;;;;5047059;23;20216;-75
2022/10/20 07:37:51;;;;;;;13.25;2.10;;;20.30;99.90;;;;;;4949200;28;20212;-77
2022/10/20 07:40:21;;;;;;;9.63;2.60;;;20.30;99.90;;;;;;4947165;29;20197;-78
2022/10/20 07:42:52;;;;;;;9.48;3.55;;;20.30;99.90;;;;;;4951506;29;20240;-73
2022/10/20 07:45:23;;;;;;;5.97;2.78;;;20.30;99.90;;;;;;4952147;29;20201;-75
2022/10/20 07:47:54;;;;;;;7.50;2.35;;;20.30;99.90;;;;;;4948507;29;20199;-77
2022/10/20 07:50:27;;;;;;;4.47;1.88;;;20.30;99.90;;;;;;4946654;29;20201;-74
2022/10/20 07:52:57;;;;;;;6.38;2.17;;;20.30;99.90;;;;;;4946955;28;20231;-76
2022/10/20 07:55:28;;;;;;;6.68;2.47;;;20.30;99.90;;;;;;4941361;29;20205;-77
2022/10/20 07:57:59;;;;;;;5.85;1.75;;;20.30;99.90;;;;;;4948749;29;20203;-75
2022/10/20 08:00:30;;;;;;;6.10;2.15;;;20.30;99.90;;;;;;4943996;29;20232;-77
2022/10/20 08:03:00;;;;;;;6.82;2.30;;;20.40;99.90;;;;;;4949623;29;20196;-77
2022/10/20 08:05:33;;;;;;;9.02;2.20;;;20.20;99.90;;;;;;4946752;29;20198;-76
2022/10/20 08:08:04;;;;;;;7.20;2.33;;;20.20;99.90;;;;;;4943861;29;20204;-78
2022/10/20 08:10:35;;;;;;;5.90;2.10;;;20.30;99.90;;;;;;4947067;29;20201;-76
2022/10/20 08:13:05;;;;;;;8.65;2.08;;;20.30;99.90;;;;;;4946862;29;20688;-77
2022/10/20 08:15:37;;;;;;;6.38;2.22;;;20.30;99.90;;;;;;4947943;29;20258;-77
2022/10/20 08:18:08;;;;;;;9.10;2.80;;;20.20;99.90;;;;;;4954214;29;20203;-77
2022/10/20 08:20:41;;;;;;;9.27;2.42;;;20.30;99.90;;;;;;4953091;29;20276;-75
2022/10/20 08:23:12;;;;;;;9.95;2.80;;;20.30;99.90;;;;;;4945099;29;20233;-76
2022/10/20 08:25:43;;;;;;;11.23;2.70;;;20.20;99.90;;;;;;4949354;29;20197;-76
2022/10/20 08:28:14;;;;;;;10.75;2.80;;;20.20;99.90;;;;;;4948748;29;20201;-73
2022/10/20 08:30:44;;;;;;;9.25;2.47;;;20.20;99.90;;;;;;4950570;28;20645;-76
2022/10/20 08:33:15;;;;;;;8.57;2.42;;;20.20;99.90;;;;;;4954021;29;20232;-72
2022/10/20 08:35:48;;;;;;;10.88;2.83;;;20.20;99.90;;;;;;4937723;28;20241;-73
2022/10/20 08:38:19;;;;;;;10.70;2.80;;;20.20;99.90;;;;;;4934272;29;20548;-78
2022/10/20 08:40:49;;;;;;;10.63;2.63;;;20.10;99.90;;;;;;4930666;29;20683;-78
2022/10/20 08:43:21;;;;;;;12.48;2.13;;;20.10;99.90;;;;;;4932598;29;20212;-72
2022/10/20 08:45:52;;;;;;;6.10;2.03;;;20.10;99.90;;;;;;4932153;29;20224;-72
2022/10/20 08:48:25;;;;;;;6.47;1.80;;;20.00;99.90;;;;;;4928292;29;20205;-73
2022/10/20 08:50:58;;;;;;;7.53;1.92;;;20.00;99.90;;;;;;4935329;29;20186;-76
2022/10/20 08:53:32;;;;;;;6.03;1.88;;;20.00;99.90;;;;;;4933263;29;20273;-77
2022/10/20 08:56:03;;;;;;;5.80;1.70;;;20.00;99.90;;;;;;4932351;29;20194;-79
2022/10/20 08:58:33;;;;;;;9.13;1.90;;;20.00;99.90;;;;;;4933409;29;20700;-78
2022/10/20 09:01:14;;;;;;;8.85;2.00;;;20.00;99.90;;;;;;4934047;29;20565;-77
2022/10/20 09:03:45;;;;;;;7.68;2.20;;;20.00;99.90;;;;;;4935083;29;20193;-78
2022/10/20 09:06:18;;;;;;;10.43;1.98;;;20.00;99.90;;;;;;4931138;29;20202;-72
2022/10/20 09:08:50;;;;;;;10.07;2.17;;;20.00;99.90;;;;;;4932234;29;20209;-78
2022/10/20 09:11:25;;;;;;;9.77;2.00;;;20.00;99.90;;;;;;4928796;29;20281;-77
2022/10/20 09:13:57;;;;;;;9.57;1.92;;;20.00;99.90;;;;;;4930140;29;20217;-78
2022/10/20 09:16:32;;;;;;;12.30;2.00;;;20.00;99.90;;;;;;4931999;29;20284;-76
2022/10/20 09:19:04;;;;;;;8.70;2.05;;;20.00;99.90;;;;;;4933404;29;20610;-77
2022/10/20 09:21:39;;;;;;;10.60;2.30;;;20.00;99.90;;;;;;4937307;29;20571;-77
2022/10/20 09:24:10;;;;;;;11.98;2.35;;;20.00;99.90;;;;;;4939037;29;20201;-78
2022/10/20 09:26:45;;;;;;;12.40;2.60;;;20.00;99.90;;;;;;4932403;29;20274;-77
2022/10/20 09:29:17;;;;;;;11.82;2.83;;;20.00;99.90;;;;;;4931400;29;20197;-77
2022/10/20 09:31:49;;;;;;;13.05;2.30;;;20.00;99.90;;;;;;4934821;29;20563;-78
2022/10/20 09:34:27;;;;;;;8.13;2.15;;;20.00;99.90;;;;;;4936880;29;20602;-77
2022/10/20 09:37:04;;;;;;;11.35;2.55;;;20.00;99.90;;;;;;4937816;29;20237;-78
2022/10/20 09:39:51;;;;;;;10.60;2.33;;;20.00;99.90;;;;;;4936415;29;21475;-77
2022/10/20 09:42:25;;;;;;;9.68;2.22;;;20.00;99.90;;;;;;4936954;29;20574;-74
2022/10/20 09:44:59;;;;;;;14.57;2.60;;;20.00;99.90;;;;;;4936705;29;20209;-73
2022/10/20 09:47:30;;;;;;;13.73;2.58;;;20.00;99.90;;;;;;4936991;29;20206;-73
2022/10/20 09:50:03;;;;;;;16.00;2.78;;;20.00;99.90;;;;;;4926596;29;20205;-72
2022/10/20 09:52:46;;;;;;;15.52;2.90;;;20.00;99.90;;;;;;4937262;29;20202;-74
2022/10/20 09:55:28;;;;;;;10.13;2.05;;;20.00;99.90;;;;;;4936479;29;20253;-74
2022/10/20 09:58:01;;;;;;;12.70;2.35;;;20.00;99.90;;;;;;4932796;29;20201;-77
2022/10/20 10:00:34;;;;;;;13.63;2.17;;;20.00;99.90;;;;;;4933969;29;20544;-73
2022/10/20 10:03:19;;;;;;;11.10;2.50;;;20.00;99.90;;;;;;4937273;29;20201;-72
2022/10/20 10:05:52;;;;;;;14.63;3.05;;;20.00;99.90;;;;;;4936717;29;20576;-76
2022/10/20 10:08:42;;;;;;;11.77;2.30;;;20.00;99.90;;;;;;4932199;29;20224;-78
2022/10/20 10:11:18;;;;;;;13.93;2.20;;;20.00;99.90;;;;;;4925820;29;20281;-78
2022/10/20 10:13:51;;;;;;;8.77;2.10;;;20.00;99.90;;;;;;4935003;29;20217;-77
2022/10/20 10:16:25;;;;;;;11.63;1.88;;;19.90;99.90;;;;;;4932609;29;20197;-75
2022/10/20 10:19:01;;;;;;;8.88;1.80;;;19.90;99.90;;;;;;4935725;29;20539;-72
2022/10/20 10:21:44;;;;;;;6.28;1.65;;;19.90;99.90;;;;;;4937334;29;20201;-74
2022/10/20 10:24:45;;;;;;;10.77;1.60;;;19.90;99.90;;;;;;4934298;29;20665;-75
2022/10/20 10:27:25;;;;;;;6.88;1.70;;;19.90;99.90;;;;;;4930616;29;20208;-76
2022/10/20 10:29:57;;;;;;;9.73;1.30;;;19.90;99.90;;;;;;4935672;29;20566;-75
2022/10/20 10:32:29;;;;;;;3.67;1.08;;;19.80;99.90;;;;;;4938015;29;20193;-77
2022/10/20 10:35:09;;;;;;;4.82;1.33;;;19.80;99.90;;;;;;4934465;29;20237;-76
2022/10/20 10:37:43;;;;;;;4.55;1.35;;;19.80;99.90;;;;;;4936243;29;20236;-76
2022/10/20 10:40:23;;;;;;;5.10;1.15;;;19.70;99.90;;;;;;4934691;29;20696;-76
2022/10/20 10:43:28;;;;;;;6.05;1.10;;;19.70;99.90;;;;;;4936125;29;20223;-77
2022/10/20 10:46:03;;;;;;;5.43;1.40;;;19.60;99.90;;;;;;4920371;29;20198;-75
2022/10/20 10:48:57;;;;;;;4.40;1.88;;;19.70;99.90;;;;;;4934230;29;20198;-77
2022/10/20 10:51:50;;;;;;;4.13;1.95;;;19.60;99.90;;;;;;4936900;29;20208;-75
2022/10/20 10:54:34;;;;;;;5.00;2.33;;;19.60;99.90;;;;;;4927460;29;20222;-77
2022/10/20 10:57:14;;;;;;;8.68;2.42;;;19.60;99.90;;;;;;4935546;29;20762;-76
2022/10/20 10:59:48;;;;;;;8.05;2.30;;;19.60;99.90;;;;;;4922129;29;20198;-77
2022/10/20 11:02:47;;;;;;;5.68;2.65;;;19.60;99.90;;;;;;4929252;29;20926;-77
2022/10/20 11:06:00;;;;;;;3.63;1.95;;;19.50;99.90;;;;;;4929679;29;20232;-75
2022/10/20 11:08:39;;;;;;;4.40;1.67;;;19.50;99.90;;;;;;4870414;29;20207;-76
2022/10/20 11:11:23;;;;;;;3.92;1.60;;;19.50;99.90;;;;;;4877324;29;20604;-73
2022/10/20 11:14:08;;;;;;;4.85;1.50;;;19.50;99.90;;;;;;4919422;29;20233;-76
2022/10/20 11:16:44;;;;;;;4.90;1.60;;;19.40;99.90;;;;;;4945429;29;20201;-75
2022/10/20 11:19:47;;;;;;;7.43;1.75;;;19.50;99.90;;;;;;4937199;29;20197;-75
2022/10/20 11:22:27;;;;;;;5.47;1.67;;;19.40;99.90;;;;;;4936225;29;20231;-76
2022/10/20 11:25:09;;;;;;;9.90;1.58;;;19.50;99.90;;;;;;4936428;29;20190;-78
2022/10/20 11:27:40;;;;;;;12.23;1.70;;;19.50;99.90;;;;;;4929155;29;20552;-78
2022/10/20 11:30:20;;;;;;;5.50;1.33;;;19.40;99.90;;;;;;4926050;29;20202;-76
2022/10/20 11:32:58;;;;;;;6.88;1.30;;;19.40;99.90;;;;;;4931268;29;20633;-75
2022/10/20 11:35:40;;;;;;;8.35;1.75;;;19.40;99.90;;;;;;4928507;29;20233;-75
2022/10/20 11:38:23;;;;;;;10.77;1.83;;;19.40;99.90;;;;;;4917837;29;20654;-76
2022/10/20 11:41:06;;;;;;;7.25;1.67;;;19.30;99.90;;;;;;4917871;29;20202;-75
2022/10/20 11:43:42;;;;;;;8.70;1.90;;;19.30;99.90;;;;;;4919036;29;20731;-73
2022/10/20 11:46:18;;;;;;;13.43;2.00;;;19.20;99.90;;;;;;4918868;29;20193;-75
2022/10/20 11:48:53;;;;;;;6.78;1.80;;;19.20;99.90;;;;;;4929255;29;20194;-77
2022/10/20 11:51:55;;;;;;;7.40;1.88;;;19.20;99.90;;;;;;4932719;29;20200;-74
2022/10/20 11:54:55;;;;;;;8.98;2.13;;;19.10;99.90;;;;;;4935021;29;20225;-74
2022/10/20 11:57:37;;;;;;;9.45;2.00;;;19.10;99.90;;;;;;4928506;29;20205;-73
2022/10/20 12:00:28;;;;;;;10.50;2.25;;;19.10;99.90;;;;;;4917456;29;20190;-76
2022/10/20 12:03:34;;;;;;;11.10;2.10;;;19.10;99.90;;;;;;4934441;29;20198;-76
2022/10/20 12:06:34;;;;;;;9.50;2.17;;;19.00;99.90;;;;;;4933253;29;20208;-77
2022/10/20 12:09:35;;;;;;;11.45;2.10;;;19.00;99.90;;;;;;4930009;29;20223;-75
2022/10/20 12:12:11;;;;;;;13.13;2.35;;;19.00;99.90;;;;;;4922581;29;20218;-74
2022/10/20 12:14:45;;;;;;;12.07;2.40;;;19.00;99.90;;;;;;4932985;29;20217;-77
2022/10/20 12:17:26;;;;;;;14.60;2.70;;;19.00;99.90;;;;;;4931749;29;20193;-77
2022/10/20 12:20:36;;;;;;;14.40;2.42;;;19.00;99.90;;;;;;4933422;29;20205;-77
2022/10/20 12:23:07;;;;;;;13.05;2.05;;;19.00;99.90;;;;;;4928793;29;20210;-76
2022/10/20 12:25:42;;;;;;;13.48;2.47;;;19.00;99.90;;;;;;4917123;29;20217;-72
2022/10/20 12:28:46;;;;;;;16.45;2.40;;;19.00;99.90;;;;;;4926064;29;20196;-72
2022/10/20 12:31:16;;;;;;;12.93;2.22;;;19.00;99.90;;;;;;4924457;29;20662;-74
2022/10/20 12:34:03;;;;;;;13.07;2.20;;;19.00;99.90;;;;;;4934457;29;20253;-75
2022/10/20 12:36:41;;;;;;;13.88;2.30;;;19.10;99.90;;;;;;4925900;29;20229;-75
2022/10/20 12:39:17;;;;;;;14.48;2.47;;;19.00;99.90;;;;;;4936082;29;20201;-76
2022/10/20 12:41:59;;;;;;;12.23;2.50;;;19.10;99.90;;;;;;4922822;29;20185;-76
2022/10/20 12:44:32;;;;;;;14.25;2.97;;;19.10;99.90;;;;;;4935265;29;20197;-74
2022/10/20 12:47:08;;;;;;;11.13;2.47;;;19.10;99.90;;;;;;4935536;29;20196;-75
2022/10/20 12:49:41;;;;;;;13.52;2.35;;;19.10;99.90;;;;;;4932225;29;20197;-76
2022/10/20 12:52:21;;;;;;;16.02;2.83;;;19.10;99.90;;;;;;4920757;29;20209;-75
2022/10/20 12:55:01;;;;;;;13.88;2.80;;;19.10;99.90;;;;;;4927058;29;20213;-76
2022/10/20 12:57:40;;;;;;;13.27;2.03;;;19.10;99.90;;;;;;4940104;29;20642;-76
2022/10/20 13:00:48;;;;;;;11.23;2.50;;;19.10;99.90;;;;;;4931088;29;20658;-78
2022/10/20 13:03:45;;;;;;;11.23;2.17;;;19.10;99.90;;;;;;4938180;29;20212;-74
2022/10/20 13:06:43;;;;;;;9.20;1.80;;;19.20;99.90;;;;;;4934113;29;20208;-73
2022/10/20 13:09:29;;;;;;;11.75;1.90;;;19.10;99.90;;;;;;4920551;29;20627;-76
2022/10/20 13:12:05;;;;;;;10.82;2.40;;;19.20;99.90;;;;;;4932828;29;20204;-76
2022/10/20 13:14:55;;;;;;;16.55;2.30;;;19.10;99.90;;;;;;4931095;29;20265;-77
2022/10/20 13:17:44;;;;;;;14.15;2.05;;;19.10;99.90;;;;;;4939392;29;20193;-77
2022/10/20 13:20:31;;;;;;;14.45;2.00;;;19.20;99.90;;;;;;4937549;29;20684;-75
2022/10/20 13:23:02;;;;;;;9.38;1.70;;;19.20;99.90;;;;;;4938307;29;20205;-78
2022/10/20 13:25:41;;;;;;;15.00;2.17;;;19.10;99.90;;;;;;4926548;29;20561;-78
2022/10/20 13:28:21;;;;;;;8.88;1.98;;;19.20;99.90;;;;;;4931782;29;20205;-75